sensor_id;sensor_type;location;lat;lon;timestamp;P1;durP1;ratioP1;P2;durP2;ratioP2
21032;SDS011;10675;47.976;7.824;2022-10-16T00:01:56;2.97;;;0.63;;
21032;SDS011;10675;47.976;7.824;2022-10-16T00:04:21;1.60;;;0.90;;
21032;SDS011;10675;47.976;7.824;2022-10-16T00:06:47;2.57;;;0.80;;
21032;SDS011;10675;47.976;7.824;2022-10-16T00:09:12;0.73;;;0.57;;
21032;SDS011;10675;47.976;7.824;2022-10-16T00:11:39;1.10;;;0.70;;
21032;SDS011;10675;47.976;7.824;2022-10-16T00:14:06;1.80;;;0.60;;
21032;SDS011;10675;47.976;7.824;2022-10-16T00:16:35;2.97;;;0.87;;
21032;SDS011;10675;47.976;7.824;2022-10-16T00:19:01;2.93;;;0.60;;
21032;SDS011;10675;47.976;7.824;2022-10-16T00:21:29;2.70;;;0.53;;
21032;SDS011;10675;47.976;7.824;2022-10-16T00:23:55;2.77;;;0.67;;
21032;SDS011;10675;47.976;7.824;2022-10-16T00:26:24;4.07;;;1.13;;
21032;SDS011;10675;47.976;7.824;2022-10-16T00:28:50;0.60;;;0.60;;
21032;SDS011;10675;47.976;7.824;2022-10-16T00:31:16;4.03;;;1.03;;
21032;SDS011;10675;47.976;7.824;2022-10-16T00:33:43;2.00;;;0.60;;
21032;SDS011;10675;47.976;7.824;2022-10-16T00:36:10;0.70;;;0.70;;
21032;SDS011;10675;47.976;7.824;2022-10-16T00:38:37;1.63;;;0.70;;
21032;SDS011;10675;47.976;7.824;2022-10-16T00:41:03;0.50;;;0.50;;
21032;SDS011;10675;47.976;7.824;2022-10-16T00:43:35;3.37;;;0.80;;
21032;SDS011;10675;47.976;7.824;2022-10-16T00:46:02;0.60;;;0.60;;
21032;SDS011;10675;47.976;7.824;2022-10-16T00:48:29;1.23;;;0.60;;
21032;SDS011;10675;47.976;7.824;2022-10-16T00:50:56;0.60;;;0.60;;
21032;SDS011;10675;47.976;7.824;2022-10-16T00:53:23;2.37;;;0.80;;
21032;SDS011;10675;47.976;7.824;2022-10-16T00:55:49;0.63;;;0.63;;
21032;SDS011;10675;47.976;7.824;2022-10-16T00:58:15;2.53;;;0.43;;
21032;SDS011;10675;47.976;7.824;2022-10-16T01:00:41;3.53;;;0.90;;
21032;SDS011;10675;47.976;7.824;2022-10-16T01:13:53;1.00;;;1.00;;
21032;SDS011;10675;47.976;7.824;2022-10-16T01:16:28;2.20;;;0.90;;
21032;SDS011;10675;47.976;7.824;2022-10-16T01:22:11;1.07;;;1.00;;
21032;SDS011;10675;47.976;7.824;2022-10-16T01:24:48;5.23;;;0.90;;
21032;SDS011;10675;47.976;7.824;2022-10-16T01:27:20;0.60;;;0.60;;
21032;SDS011;10675;47.976;7.824;2022-10-16T01:29:51;0.60;;;0.60;;
21032;SDS011;10675;47.976;7.824;2022-10-16T01:35:01;1.03;;;0.67;;
21032;SDS011;10675;47.976;7.824;2022-10-16T01:37:46;1.30;;;0.70;;
21032;SDS011;10675;47.976;7.824;2022-10-16T01:40:17;1.87;;;0.70;;
21032;SDS011;10675;47.976;7.824;2022-10-16T01:42:52;1.63;;;0.70;;
21032;SDS011;10675;47.976;7.824;2022-10-16T01:45:23;1.10;;;0.80;;
21032;SDS011;10675;47.976;7.824;2022-10-16T01:47:49;1.00;;;1.00;;
21032;SDS011;10675;47.976;7.824;2022-10-16T01:50:17;1.00;;;1.00;;
21032;SDS011;10675;47.976;7.824;2022-10-16T01:52:45;1.30;;;0.90;;
21032;SDS011;10675;47.976;7.824;2022-10-16T01:55:16;2.00;;;1.27;;
21032;SDS011;10675;47.976;7.824;2022-10-16T01:57:47;1.00;;;0.90;;
21032;SDS011;10675;47.976;7.824;2022-10-16T02:00:15;1.43;;;0.73;;
21032;SDS011;10675;47.976;7.824;2022-10-16T02:02:43;0.93;;;0.80;;
21032;SDS011;10675;47.976;7.824;2022-10-16T02:07:47;1.03;;;0.90;;
21032;SDS011;10675;47.976;7.824;2022-10-16T02:10:13;0.63;;;0.63;;
21032;SDS011;10675;47.976;7.824;2022-10-16T02:12:40;1.37;;;0.90;;
21032;SDS011;10675;47.976;7.824;2022-10-16T02:15:10;1.47;;;0.90;;
21032;SDS011;10675;47.976;7.824;2022-10-16T02:17:36;3.13;;;1.27;;
21032;SDS011;10675;47.976;7.824;2022-10-16T02:20:02;1.93;;;0.83;;
21032;SDS011;10675;47.976;7.824;2022-10-16T02:22:34;3.10;;;1.50;;
21032;SDS011;10675;47.976;7.824;2022-10-16T02:27:52;1.40;;;1.00;;
21032;SDS011;10675;47.976;7.824;2022-10-16T02:32:52;1.17;;;0.97;;
21032;SDS011;10675;47.976;7.824;2022-10-16T02:35:19;2.63;;;1.10;;
21032;SDS011;10675;47.976;7.824;2022-10-16T02:37:46;1.13;;;0.90;;
21032;SDS011;10675;47.976;7.824;2022-10-16T02:40:13;1.90;;;1.00;;
21032;SDS011;10675;47.976;7.824;2022-10-16T02:42:40;2.30;;;1.07;;
21032;SDS011;10675;47.976;7.824;2022-10-16T02:45:06;1.13;;;1.00;;
21032;SDS011;10675;47.976;7.824;2022-10-16T02:47:33;1.60;;;0.80;;
21032;SDS011;10675;47.976;7.824;2022-10-16T02:49:59;0.80;;;0.60;;
21032;SDS011;10675;47.976;7.824;2022-10-16T02:52:24;1.30;;;0.57;;
21032;SDS011;10675;47.976;7.824;2022-10-16T02:54:50;1.60;;;0.77;;
21032;SDS011;10675;47.976;7.824;2022-10-16T02:57:16;1.83;;;0.67;;
21032;SDS011;10675;47.976;7.824;2022-10-16T02:59:43;7.23;;;1.10;;
21032;SDS011;10675;47.976;7.824;2022-10-16T03:02:08;1.27;;;0.73;;
21032;SDS011;10675;47.976;7.824;2022-10-16T03:04:34;2.83;;;0.90;;
21032;SDS011;10675;47.976;7.824;2022-10-16T03:07:00;4.13;;;0.97;;
21032;SDS011;10675;47.976;7.824;2022-10-16T03:09:25;4.00;;;0.90;;
21032;SDS011;10675;47.976;7.824;2022-10-16T03:11:51;2.10;;;0.70;;
21032;SDS011;10675;47.976;7.824;2022-10-16T03:14:17;0.90;;;0.90;;
21032;SDS011;10675;47.976;7.824;2022-10-16T03:16:42;5.53;;;0.90;;
21032;SDS011;10675;47.976;7.824;2022-10-16T03:19:08;0.70;;;0.70;;
21032;SDS011;10675;47.976;7.824;2022-10-16T03:21:34;1.10;;;0.90;;
21032;SDS011;10675;47.976;7.824;2022-10-16T03:23:59;2.63;;;0.70;;
21032;SDS011;10675;47.976;7.824;2022-10-16T03:26:25;1.60;;;1.00;;
21032;SDS011;10675;47.976;7.824;2022-10-16T03:28:50;0.67;;;0.67;;
21032;SDS011;10675;47.976;7.824;2022-10-16T03:31:16;1.10;;;0.83;;
21032;SDS011;10675;47.976;7.824;2022-10-16T03:33:41;0.90;;;0.90;;
21032;SDS011;10675;47.976;7.824;2022-10-16T03:36:07;2.70;;;0.60;;
21032;SDS011;10675;47.976;7.824;2022-10-16T03:38:32;2.30;;;0.80;;
21032;SDS011;10675;47.976;7.824;2022-10-16T03:40:58;3.10;;;0.70;;
21032;SDS011;10675;47.976;7.824;2022-10-16T03:43:23;0.80;;;0.80;;
21032;SDS011;10675;47.976;7.824;2022-10-16T03:45:52;0.80;;;0.80;;
21032;SDS011;10675;47.976;7.824;2022-10-16T03:48:18;1.10;;;0.97;;
21032;SDS011;10675;47.976;7.824;2022-10-16T03:50:44;0.93;;;0.80;;
21032;SDS011;10675;47.976;7.824;2022-10-16T03:53:11;2.63;;;1.07;;
21032;SDS011;10675;47.976;7.824;2022-10-16T03:55:37;1.13;;;0.70;;
21032;SDS011;10675;47.976;7.824;2022-10-16T03:58:02;1.47;;;0.70;;
21032;SDS011;10675;47.976;7.824;2022-10-16T04:00:28;0.60;;;0.60;;
21032;SDS011;10675;47.976;7.824;2022-10-16T04:02:53;0.90;;;0.80;;
21032;SDS011;10675;47.976;7.824;2022-10-16T04:05:19;0.57;;;0.53;;
21032;SDS011;10675;47.976;7.824;2022-10-16T04:07:45;0.60;;;0.60;;
21032;SDS011;10675;47.976;7.824;2022-10-16T04:10:10;0.87;;;0.87;;
21032;SDS011;10675;47.976;7.824;2022-10-16T04:12:36;1.50;;;0.80;;
21032;SDS011;10675;47.976;7.824;2022-10-16T04:15:01;0.80;;;0.80;;
21032;SDS011;10675;47.976;7.824;2022-10-16T04:17:27;3.43;;;0.63;;
21032;SDS011;10675;47.976;7.824;2022-10-16T04:19:53;2.00;;;0.87;;
21032;SDS011;10675;47.976;7.824;2022-10-16T04:22:18;1.10;;;0.80;;
21032;SDS011;10675;47.976;7.824;2022-10-16T04:24:44;3.40;;;0.90;;
21032;SDS011;10675;47.976;7.824;2022-10-16T04:27:09;4.67;;;0.93;;
21032;SDS011;10675;47.976;7.824;2022-10-16T04:29:35;1.43;;;1.10;;
21032;SDS011;10675;47.976;7.824;2022-10-16T04:32:01;0.73;;;0.67;;
21032;SDS011;10675;47.976;7.824;2022-10-16T04:34:26;3.13;;;0.70;;
21032;SDS011;10675;47.976;7.824;2022-10-16T04:36:52;0.90;;;0.90;;
21032;SDS011;10675;47.976;7.824;2022-10-16T04:39:17;0.50;;;0.50;;
21032;SDS011;10675;47.976;7.824;2022-10-16T04:41:43;0.60;;;0.60;;
21032;SDS011;10675;47.976;7.824;2022-10-16T04:44:08;2.03;;;0.90;;
21032;SDS011;10675;47.976;7.824;2022-10-16T04:46:34;3.73;;;0.73;;
21032;SDS011;10675;47.976;7.824;2022-10-16T04:48:59;0.87;;;0.80;;
21032;SDS011;10675;47.976;7.824;2022-10-16T04:51:25;1.80;;;0.87;;
21032;SDS011;10675;47.976;7.824;2022-10-16T04:53:52;2.40;;;0.70;;
21032;SDS011;10675;47.976;7.824;2022-10-16T04:56:18;2.10;;;0.70;;
21032;SDS011;10675;47.976;7.824;2022-10-16T04:58:43;0.83;;;0.80;;
21032;SDS011;10675;47.976;7.824;2022-10-16T05:01:09;0.73;;;0.73;;
21032;SDS011;10675;47.976;7.824;2022-10-16T05:03:34;1.80;;;0.90;;
21032;SDS011;10675;47.976;7.824;2022-10-16T05:06:00;5.00;;;1.07;;
21032;SDS011;10675;47.976;7.824;2022-10-16T05:08:25;0.80;;;0.80;;
21032;SDS011;10675;47.976;7.824;2022-10-16T05:10:51;0.67;;;0.67;;
21032;SDS011;10675;47.976;7.824;2022-10-16T05:13:16;1.53;;;0.87;;
21032;SDS011;10675;47.976;7.824;2022-10-16T05:15:46;1.10;;;0.70;;
21032;SDS011;10675;47.976;7.824;2022-10-16T05:18:13;0.70;;;0.70;;
21032;SDS011;10675;47.976;7.824;2022-10-16T05:20:39;1.07;;;0.73;;
21032;SDS011;10675;47.976;7.824;2022-10-16T05:23:04;1.63;;;1.10;;
21032;SDS011;10675;47.976;7.824;2022-10-16T05:25:30;1.20;;;0.63;;
21032;SDS011;10675;47.976;7.824;2022-10-16T05:27:55;0.67;;;0.67;;
21032;SDS011;10675;47.976;7.824;2022-10-16T05:30:21;1.57;;;1.00;;
21032;SDS011;10675;47.976;7.824;2022-10-16T05:32:47;2.00;;;0.90;;
21032;SDS011;10675;47.976;7.824;2022-10-16T05:35:14;4.17;;;0.90;;
21032;SDS011;10675;47.976;7.824;2022-10-16T05:37:40;1.87;;;1.00;;
21032;SDS011;10675;47.976;7.824;2022-10-16T05:40:06;1.03;;;0.90;;
21032;SDS011;10675;47.976;7.824;2022-10-16T05:42:32;0.80;;;0.80;;
21032;SDS011;10675;47.976;7.824;2022-10-16T05:44:57;2.93;;;1.10;;
21032;SDS011;10675;47.976;7.824;2022-10-16T05:47:23;0.80;;;0.80;;
21032;SDS011;10675;47.976;7.824;2022-10-16T05:49:48;1.00;;;1.00;;
21032;SDS011;10675;47.976;7.824;2022-10-16T05:52:14;1.23;;;1.00;;
21032;SDS011;10675;47.976;7.824;2022-10-16T05:54:39;2.93;;;1.00;;
21032;SDS011;10675;47.976;7.824;2022-10-16T05:57:05;1.93;;;1.10;;
21032;SDS011;10675;47.976;7.824;2022-10-16T05:59:31;2.43;;;0.97;;
21032;SDS011;10675;47.976;7.824;2022-10-16T06:01:57;2.43;;;0.70;;
21032;SDS011;10675;47.976;7.824;2022-10-16T06:04:22;2.13;;;1.10;;
21032;SDS011;10675;47.976;7.824;2022-10-16T06:06:48;0.90;;;0.90;;
21032;SDS011;10675;47.976;7.824;2022-10-16T06:09:13;1.43;;;1.20;;
21032;SDS011;10675;47.976;7.824;2022-10-16T06:11:39;4.10;;;0.70;;
21032;SDS011;10675;47.976;7.824;2022-10-16T06:14:04;0.70;;;0.70;;
21032;SDS011;10675;47.976;7.824;2022-10-16T06:16:32;1.30;;;1.10;;
21032;SDS011;10675;47.976;7.824;2022-10-16T06:18:59;2.17;;;0.70;;
21032;SDS011;10675;47.976;7.824;2022-10-16T06:21:25;0.80;;;0.80;;
21032;SDS011;10675;47.976;7.824;2022-10-16T06:23:52;0.80;;;0.80;;
21032;SDS011;10675;47.976;7.824;2022-10-16T06:26:20;2.17;;;0.87;;
21032;SDS011;10675;47.976;7.824;2022-10-16T06:28:47;4.20;;;0.97;;
21032;SDS011;10675;47.976;7.824;2022-10-16T06:31:14;1.57;;;0.93;;
21032;SDS011;10675;47.976;7.824;2022-10-16T06:33:40;0.80;;;0.80;;
21032;SDS011;10675;47.976;7.824;2022-10-16T06:36:07;3.60;;;1.53;;
21032;SDS011;10675;47.976;7.824;2022-10-16T06:38:38;1.47;;;1.17;;
21032;SDS011;10675;47.976;7.824;2022-10-16T06:41:04;1.83;;;1.10;;
21032;SDS011;10675;47.976;7.824;2022-10-16T06:43:31;3.13;;;0.93;;
21032;SDS011;10675;47.976;7.824;2022-10-16T06:45:57;1.37;;;0.93;;
21032;SDS011;10675;47.976;7.824;2022-10-16T06:48:24;1.63;;;1.20;;
21032;SDS011;10675;47.976;7.824;2022-10-16T06:50:57;2.73;;;1.27;;
21032;SDS011;10675;47.976;7.824;2022-10-16T06:53:24;1.20;;;1.10;;
21032;SDS011;10675;47.976;7.824;2022-10-16T06:55:49;3.90;;;0.90;;
21032;SDS011;10675;47.976;7.824;2022-10-16T06:58:15;5.80;;;1.17;;
21032;SDS011;10675;47.976;7.824;2022-10-16T07:00:40;3.07;;;0.87;;
21032;SDS011;10675;47.976;7.824;2022-10-16T07:03:06;1.00;;;0.90;;
21032;SDS011;10675;47.976;7.824;2022-10-16T07:05:31;3.07;;;0.93;;
21032;SDS011;10675;47.976;7.824;2022-10-16T07:08:01;3.70;;;0.83;;
21032;SDS011;10675;47.976;7.824;2022-10-16T07:10:29;1.23;;;1.13;;
21032;SDS011;10675;47.976;7.824;2022-10-16T07:12:56;1.20;;;0.97;;
21032;SDS011;10675;47.976;7.824;2022-10-16T07:15:21;1.27;;;1.17;;
21032;SDS011;10675;47.976;7.824;2022-10-16T07:17:47;1.00;;;1.00;;
21032;SDS011;10675;47.976;7.824;2022-10-16T07:20:12;2.80;;;1.10;;
21032;SDS011;10675;47.976;7.824;2022-10-16T07:22:38;3.33;;;1.33;;
21032;SDS011;10675;47.976;7.824;2022-10-16T07:25:04;1.93;;;1.17;;
21032;SDS011;10675;47.976;7.824;2022-10-16T07:27:30;2.13;;;1.13;;
21032;SDS011;10675;47.976;7.824;2022-10-16T07:29:55;1.23;;;1.20;;
21032;SDS011;10675;47.976;7.824;2022-10-16T07:32:21;2.30;;;0.90;;
21032;SDS011;10675;47.976;7.824;2022-10-16T07:34:46;1.53;;;1.17;;
21032;SDS011;10675;47.976;7.824;2022-10-16T07:37:12;1.60;;;1.20;;
21032;SDS011;10675;47.976;7.824;2022-10-16T07:39:37;1.70;;;1.30;;
21032;SDS011;10675;47.976;7.824;2022-10-16T07:42:03;1.30;;;1.20;;
21032;SDS011;10675;47.976;7.824;2022-10-16T07:44:28;3.43;;;1.10;;
21032;SDS011;10675;47.976;7.824;2022-10-16T07:46:54;1.43;;;1.27;;
21032;SDS011;10675;47.976;7.824;2022-10-16T07:49:19;3.87;;;1.20;;
21032;SDS011;10675;47.976;7.824;2022-10-16T07:51:45;1.67;;;1.10;;
21032;SDS011;10675;47.976;7.824;2022-10-16T07:54:10;1.47;;;1.03;;
21032;SDS011;10675;47.976;7.824;2022-10-16T07:56:36;1.83;;;1.20;;
21032;SDS011;10675;47.976;7.824;2022-10-16T07:59:02;2.17;;;1.00;;
21032;SDS011;10675;47.976;7.824;2022-10-16T08:01:27;1.63;;;1.13;;
21032;SDS011;10675;47.976;7.824;2022-10-16T08:03:53;2.27;;;1.47;;
21032;SDS011;10675;47.976;7.824;2022-10-16T08:06:19;2.00;;;1.40;;
21032;SDS011;10675;47.976;7.824;2022-10-16T08:08:46;3.33;;;1.50;;
21032;SDS011;10675;47.976;7.824;2022-10-16T08:11:12;1.57;;;1.37;;
21032;SDS011;10675;47.976;7.824;2022-10-16T08:13:39;1.20;;;1.10;;
21032;SDS011;10675;47.976;7.824;2022-10-16T08:16:06;1.50;;;1.40;;
21032;SDS011;10675;47.976;7.824;2022-10-16T08:18:36;2.70;;;1.23;;
21032;SDS011;10675;47.976;7.824;2022-10-16T08:21:03;1.80;;;1.50;;
21032;SDS011;10675;47.976;7.824;2022-10-16T08:23:30;1.23;;;1.10;;
21032;SDS011;10675;47.976;7.824;2022-10-16T08:26:02;1.77;;;1.67;;
21032;SDS011;10675;47.976;7.824;2022-10-16T08:28:29;3.07;;;0.97;;
21032;SDS011;10675;47.976;7.824;2022-10-16T08:30:55;3.17;;;1.10;;
21032;SDS011;10675;47.976;7.824;2022-10-16T08:33:21;1.33;;;1.00;;
21032;SDS011;10675;47.976;7.824;2022-10-16T08:35:51;2.10;;;1.00;;
21032;SDS011;10675;47.976;7.824;2022-10-16T08:38:18;1.20;;;1.10;;
21032;SDS011;10675;47.976;7.824;2022-10-16T08:40:44;2.60;;;1.20;;
21032;SDS011;10675;47.976;7.824;2022-10-16T08:48:41;1.20;;;1.02;;
21032;SDS011;10675;47.976;7.824;2022-10-16T08:51:11;1.27;;;1.00;;
21032;SDS011;10675;47.976;7.824;2022-10-16T08:53:54;1.38;;;0.90;;
21032;SDS011;10675;47.976;7.824;2022-10-16T08:56:22;2.85;;;1.30;;
21032;SDS011;10675;47.976;7.824;2022-10-16T08:58:48;2.90;;;1.27;;
21032;SDS011;10675;47.976;7.824;2022-10-16T09:01:16;2.63;;;1.13;;
21032;SDS011;10675;47.976;7.824;2022-10-16T09:12:00;2.07;;;1.50;;
21032;SDS011;10675;47.976;7.824;2022-10-16T09:18:16;2.38;;;1.00;;
21032;SDS011;10675;47.976;7.824;2022-10-16T09:23:36;2.85;;;1.27;;
21032;SDS011;10675;47.976;7.824;2022-10-16T09:26:03;1.65;;;1.13;;
21032;SDS011;10675;47.976;7.824;2022-10-16T09:28:30;0.95;;;0.90;;
21032;SDS011;10675;47.976;7.824;2022-10-16T09:30:56;1.35;;;1.20;;
21032;SDS011;10675;47.976;7.824;2022-10-16T09:33:23;1.40;;;1.10;;
21032;SDS011;10675;47.976;7.824;2022-10-16T09:35:53;1.67;;;1.23;;
21032;SDS011;10675;47.976;7.824;2022-10-16T09:38:25;2.35;;;1.20;;
21032;SDS011;10675;47.976;7.824;2022-10-16T09:40:58;2.63;;;1.08;;
21032;SDS011;10675;47.976;7.824;2022-10-16T09:48:46;1.73;;;0.70;;
21032;SDS011;10675;47.976;7.824;2022-10-16T09:51:36;0.80;;;0.80;;
21032;SDS011;10675;47.976;7.824;2022-10-16T09:54:10;0.80;;;0.80;;
21032;SDS011;10675;47.976;7.824;2022-10-16T09:56:37;2.20;;;0.80;;
21032;SDS011;10675;47.976;7.824;2022-10-16T09:59:13;0.60;;;0.60;;
21032;SDS011;10675;47.976;7.824;2022-10-16T10:01:42;0.52;;;0.52;;
21032;SDS011;10675;47.976;7.824;2022-10-16T10:04:12;2.80;;;1.48;;
21032;SDS011;10675;47.976;7.824;2022-10-16T10:06:45;0.70;;;0.70;;
21032;SDS011;10675;47.976;7.824;2022-10-16T10:09:30;0.73;;;0.65;;
21032;SDS011;10675;47.976;7.824;2022-10-16T10:12:04;1.98;;;0.70;;
21032;SDS011;10675;47.976;7.824;2022-10-16T10:14:44;1.10;;;0.63;;
21032;SDS011;10675;47.976;7.824;2022-10-16T10:17:14;0.80;;;0.80;;
21032;SDS011;10675;47.976;7.824;2022-10-16T10:22:41;0.70;;;0.70;;
21032;SDS011;10675;47.976;7.824;2022-10-16T10:30:46;2.15;;;1.73;;
21032;SDS011;10675;47.976;7.824;2022-10-16T10:38:49;0.82;;;0.52;;
21032;SDS011;10675;47.976;7.824;2022-10-16T10:47:23;1.00;;;1.00;;
21032;SDS011;10675;47.976;7.824;2022-10-16T10:50:04;1.63;;;1.40;;
21032;SDS011;10675;47.976;7.824;2022-10-16T10:52:52;3.97;;;3.67;;
21032;SDS011;10675;47.976;7.824;2022-10-16T10:55:37;3.88;;;3.58;;
21032;SDS011;10675;47.976;7.824;2022-10-16T10:58:24;1.10;;;0.70;;
21032;SDS011;10675;47.976;7.824;2022-10-16T11:01:17;1.20;;;1.10;;
21032;SDS011;10675;47.976;7.824;2022-10-16T11:06:40;0.60;;;0.60;;
21032;SDS011;10675;47.976;7.824;2022-10-16T11:11:44;1.90;;;0.98;;
21032;SDS011;10675;47.976;7.824;2022-10-16T11:14:16;0.70;;;0.70;;
21032;SDS011;10675;47.976;7.824;2022-10-16T11:19:45;0.70;;;0.70;;
21032;SDS011;10675;47.976;7.824;2022-10-16T11:25:11;1.85;;;0.70;;
21032;SDS011;10675;47.976;7.824;2022-10-16T11:35:52;0.65;;;0.65;;
21032;SDS011;10675;47.976;7.824;2022-10-16T11:41:15;0.82;;;0.73;;
21032;SDS011;10675;47.976;7.824;2022-10-16T11:43:50;0.82;;;0.82;;
21032;SDS011;10675;47.976;7.824;2022-10-16T11:46:27;0.80;;;0.80;;
21032;SDS011;10675;47.976;7.824;2022-10-16T11:48:56;1.65;;;0.95;;
21032;SDS011;10675;47.976;7.824;2022-10-16T11:51:40;2.05;;;1.02;;
21032;SDS011;10675;47.976;7.824;2022-10-16T11:54:20;2.92;;;0.80;;
21032;SDS011;10675;47.976;7.824;2022-10-16T11:56:51;0.70;;;0.70;;
21032;SDS011;10675;47.976;7.824;2022-10-16T11:59:23;1.65;;;0.88;;
21032;SDS011;10675;47.976;7.824;2022-10-16T12:02:38;1.52;;;0.60;;
21032;SDS011;10675;47.976;7.824;2022-10-16T12:04:58;1.52;;;0.88;;
21032;SDS011;10675;47.976;7.824;2022-10-16T12:07:48;1.02;;;0.68;;
21032;SDS011;10675;47.976;7.824;2022-10-16T12:10:26;0.80;;;0.80;;
21032;SDS011;10675;47.976;7.824;2022-10-16T12:12:56;1.27;;;0.68;;
21032;SDS011;10675;47.976;7.824;2022-10-16T12:15:26;1.00;;;0.93;;
21032;SDS011;10675;47.976;7.824;2022-10-16T12:17:53;0.93;;;0.88;;
21032;SDS011;10675;47.976;7.824;2022-10-16T12:20:27;2.08;;;1.08;;
21032;SDS011;10675;47.976;7.824;2022-10-16T12:25:34;2.53;;;0.98;;
21032;SDS011;10675;47.976;7.824;2022-10-16T12:28:05;1.52;;;1.00;;
21032;SDS011;10675;47.976;7.824;2022-10-16T12:30:52;4.45;;;0.90;;
21032;SDS011;10675;47.976;7.824;2022-10-16T12:33:24;1.77;;;0.90;;
21032;SDS011;10675;47.976;7.824;2022-10-16T12:36:15;0.80;;;0.80;;
21032;SDS011;10675;47.976;7.824;2022-10-16T12:38:52;0.80;;;0.80;;
21032;SDS011;10675;47.976;7.824;2022-10-16T12:41:26;0.70;;;0.70;;
21032;SDS011;10675;47.976;7.824;2022-10-16T12:44:04;1.70;;;0.80;;
21032;SDS011;10675;47.976;7.824;2022-10-16T12:51:39;2.88;;;1.00;;
21032;SDS011;10675;47.976;7.824;2022-10-16T12:54:22;0.70;;;0.70;;
21032;SDS011;10675;47.976;7.824;2022-10-16T12:59:43;0.70;;;0.70;;
21032;SDS011;10675;47.976;7.824;2022-10-16T13:10:59;3.00;;;1.52;;
21032;SDS011;10675;47.976;7.824;2022-10-16T13:27:37;0.80;;;0.80;;
21032;SDS011;10675;47.976;7.824;2022-10-16T13:30:15;3.70;;;1.20;;
21032;SDS011;10675;47.976;7.824;2022-10-16T13:32:46;0.77;;;0.77;;
21032;SDS011;10675;47.976;7.824;2022-10-16T13:35:22;0.82;;;0.82;;
21032;SDS011;10675;47.976;7.824;2022-10-16T13:38:02;0.90;;;0.90;;
21032;SDS011;10675;47.976;7.824;2022-10-16T13:40:48;2.33;;;0.90;;
21032;SDS011;10675;47.976;7.824;2022-10-16T13:43:17;0.90;;;0.90;;
21032;SDS011;10675;47.976;7.824;2022-10-16T13:46:01;0.70;;;0.70;;
21032;SDS011;10675;47.976;7.824;2022-10-16T13:48:31;2.17;;;0.85;;
21032;SDS011;10675;47.976;7.824;2022-10-16T13:53:35;0.90;;;0.90;;
21032;SDS011;10675;47.976;7.824;2022-10-16T13:56:05;0.65;;;0.65;;
21032;SDS011;10675;47.976;7.824;2022-10-16T13:58:34;0.80;;;0.80;;
21032;SDS011;10675;47.976;7.824;2022-10-16T14:01:04;1.40;;;0.85;;
21032;SDS011;10675;47.976;7.824;2022-10-16T14:03:39;1.10;;;1.00;;
21032;SDS011;10675;47.976;7.824;2022-10-16T14:06:06;1.17;;;1.00;;
21032;SDS011;10675;47.976;7.824;2022-10-16T14:08:41;1.70;;;1.60;;
21032;SDS011;10675;47.976;7.824;2022-10-16T14:11:09;0.90;;;0.90;;
21032;SDS011;10675;47.976;7.824;2022-10-16T14:13:39;3.33;;;0.80;;
21032;SDS011;10675;47.976;7.824;2022-10-16T14:16:15;1.38;;;0.90;;
21032;SDS011;10675;47.976;7.824;2022-10-16T14:18:45;2.53;;;0.90;;
21032;SDS011;10675;47.976;7.824;2022-10-16T14:21:19;2.60;;;0.95;;
21032;SDS011;10675;47.976;7.824;2022-10-16T14:23:44;1.20;;;1.10;;
21032;SDS011;10675;47.976;7.824;2022-10-16T14:28:38;1.15;;;1.02;;
21032;SDS011;10675;47.976;7.824;2022-10-16T14:36:55;0.98;;;0.90;;
21032;SDS011;10675;47.976;7.824;2022-10-16T14:39:21;1.23;;;1.13;;
21032;SDS011;10675;47.976;7.824;2022-10-16T14:41:50;1.35;;;1.00;;
21032;SDS011;10675;47.976;7.824;2022-10-16T14:44:20;4.18;;;1.10;;
21032;SDS011;10675;47.976;7.824;2022-10-16T14:46:56;1.42;;;0.80;;
21032;SDS011;10675;47.976;7.824;2022-10-16T14:49:22;2.60;;;0.90;;
21032;SDS011;10675;47.976;7.824;2022-10-16T14:51:49;0.90;;;0.90;;
21032;SDS011;10675;47.976;7.824;2022-10-16T14:54:15;0.98;;;0.95;;
21032;SDS011;10675;47.976;7.824;2022-10-16T14:56:49;1.00;;;0.90;;
21032;SDS011;10675;47.976;7.824;2022-10-16T14:59:18;1.30;;;1.02;;
21032;SDS011;10675;47.976;7.824;2022-10-16T15:01:51;3.67;;;1.10;;
21032;SDS011;10675;47.976;7.824;2022-10-16T15:04:17;4.05;;;1.15;;
21032;SDS011;10675;47.976;7.824;2022-10-16T15:06:43;2.42;;;1.77;;
21032;SDS011;10675;47.976;7.824;2022-10-16T15:09:09;2.65;;;1.02;;
21032;SDS011;10675;47.976;7.824;2022-10-16T15:11:35;2.00;;;1.17;;
21032;SDS011;10675;47.976;7.824;2022-10-16T15:14:01;2.47;;;1.10;;
21032;SDS011;10675;47.976;7.824;2022-10-16T15:16:26;2.15;;;1.20;;
21032;SDS011;10675;47.976;7.824;2022-10-16T15:18:52;0.75;;;0.75;;
21032;SDS011;10675;47.976;7.824;2022-10-16T15:21:23;3.40;;;1.20;;
21032;SDS011;10675;47.976;7.824;2022-10-16T15:23:51;2.15;;;1.15;;
21032;SDS011;10675;47.976;7.824;2022-10-16T15:26:17;5.38;;;1.90;;
21032;SDS011;10675;47.976;7.824;2022-10-16T15:28:43;1.50;;;1.27;;
21032;SDS011;10675;47.976;7.824;2022-10-16T15:31:08;1.45;;;1.10;;
21032;SDS011;10675;47.976;7.824;2022-10-16T15:33:34;1.50;;;1.38;;
21032;SDS011;10675;47.976;7.824;2022-10-16T15:36:00;1.30;;;1.10;;
21032;SDS011;10675;47.976;7.824;2022-10-16T15:38:28;4.07;;;1.40;;
21032;SDS011;10675;47.976;7.824;2022-10-16T15:40:54;4.75;;;1.60;;
21032;SDS011;10675;47.976;7.824;2022-10-16T15:43:21;1.55;;;1.30;;
21032;SDS011;10675;47.976;7.824;2022-10-16T15:48:29;2.15;;;1.45;;
21032;SDS011;10675;47.976;7.824;2022-10-16T15:50:55;3.00;;;1.70;;
21032;SDS011;10675;47.976;7.824;2022-10-16T15:53:20;2.75;;;1.80;;
21032;SDS011;10675;47.976;7.824;2022-10-16T15:55:46;7.97;;;3.15;;
21032;SDS011;10675;47.976;7.824;2022-10-16T15:58:12;8.38;;;2.85;;
21032;SDS011;10675;47.976;7.824;2022-10-16T16:00:37;9.05;;;2.50;;
21032;SDS011;10675;47.976;7.824;2022-10-16T16:03:03;4.03;;;1.92;;
21032;SDS011;10675;47.976;7.824;2022-10-16T16:05:28;3.08;;;2.08;;
21032;SDS011;10675;47.976;7.824;2022-10-16T16:07:54;3.85;;;2.20;;
21032;SDS011;10675;47.976;7.824;2022-10-16T16:10:20;3.30;;;1.90;;
21032;SDS011;10675;47.976;7.824;2022-10-16T16:12:46;3.78;;;1.98;;
21032;SDS011;10675;47.976;7.824;2022-10-16T16:15:16;1.42;;;1.30;;
21032;SDS011;10675;47.976;7.824;2022-10-16T16:17:43;3.85;;;1.40;;
21032;SDS011;10675;47.976;7.824;2022-10-16T16:20:09;2.60;;;1.60;;
21032;SDS011;10675;47.976;7.824;2022-10-16T16:22:35;3.40;;;1.50;;
21032;SDS011;10675;47.976;7.824;2022-10-16T16:25:00;2.58;;;1.30;;
21032;SDS011;10675;47.976;7.824;2022-10-16T16:27:26;5.43;;;1.13;;
21032;SDS011;10675;47.976;7.824;2022-10-16T16:29:54;4.03;;;1.77;;
21032;SDS011;10675;47.976;7.824;2022-10-16T16:32:20;3.03;;;1.25;;
21032;SDS011;10675;47.976;7.824;2022-10-16T16:34:45;2.42;;;1.25;;
21032;SDS011;10675;47.976;7.824;2022-10-16T16:37:11;1.35;;;1.25;;
21032;SDS011;10675;47.976;7.824;2022-10-16T16:39:37;3.30;;;1.40;;
21032;SDS011;10675;47.976;7.824;2022-10-16T16:42:02;1.58;;;1.00;;
21032;SDS011;10675;47.976;7.824;2022-10-16T16:44:29;1.30;;;1.17;;
21032;SDS011;10675;47.976;7.824;2022-10-16T16:46:55;2.53;;;1.38;;
21032;SDS011;10675;47.976;7.824;2022-10-16T16:49:20;3.80;;;1.98;;
21032;SDS011;10675;47.976;7.824;2022-10-16T16:51:46;2.03;;;1.60;;
21032;SDS011;10675;47.976;7.824;2022-10-16T16:54:12;2.50;;;2.10;;
21032;SDS011;10675;47.976;7.824;2022-10-16T16:56:38;3.63;;;2.60;;
21032;SDS011;10675;47.976;7.824;2022-10-16T16:59:10;5.25;;;2.35;;
21032;SDS011;10675;47.976;7.824;2022-10-16T17:01:38;4.70;;;2.20;;
21032;SDS011;10675;47.976;7.824;2022-10-16T17:04:03;4.05;;;2.00;;
21032;SDS011;10675;47.976;7.824;2022-10-16T17:06:30;4.50;;;2.33;;
21032;SDS011;10675;47.976;7.824;2022-10-16T17:08:56;2.75;;;1.90;;
21032;SDS011;10675;47.976;7.824;2022-10-16T17:11:23;3.17;;;1.52;;
21032;SDS011;10675;47.976;7.824;2022-10-16T17:13:51;2.00;;;1.48;;
21032;SDS011;10675;47.976;7.824;2022-10-16T17:16:18;2.65;;;1.58;;